Time;durP1;ratioP1;P1;durP2;ratioP2;P2;SDS_P1;SDS_P2;PMS_P1;PMS_P2;Temp;Humidity;BMP_temperature;BMP_pressure;BME280_temperature;BME280_humidity;BME280_pressure;Samples;Min_cycle;Max_cycle;Signal;HPM_P1;HPM_P2
2022/10/29 00:00:05;;;;;;;7.93;3.10;;;;;;;12.34;100.00;97107.47;5087611;28;20212;-79
2022/10/29 00:02:35;;;;;;;9.83;3.37;;;;;;;12.41;100.00;97102.84;5087676;28;20200;-79
2022/10/29 00:05:02;;;;;;;9.90;3.23;;;;;;;12.44;100.00;97100.50;5082871;28;20348;-79
2022/10/29 00:07:30;;;;;;;9.23;3.50;;;;;;;12.47;100.00;97101.94;5083626;28;20197;-79
2022/10/29 00:09:57;;;;;;;8.10;3.60;;;;;;;12.51;100.00;97103.97;5080700;28;20213;-79
2022/10/29 00:12:24;;;;;;;11.40;3.23;;;;;;;12.53;100.00;97103.75;5090562;28;20207;-79
2022/10/29 00:14:52;;;;;;;9.80;2.90;;;;;;;12.56;100.00;97103.31;5088469;28;20212;-79
2022/10/29 00:17:19;;;;;;;10.87;3.07;;;;;;;12.62;100.00;97107.00;5087293;28;20254;-79
2022/10/29 00:19:46;;;;;;;8.87;3.37;;;;;;;12.63;100.00;97105.94;5085525;28;20388;-79
2022/10/29 00:22:13;;;;;;;8.50;3.93;;;;;;;12.65;100.00;97107.38;5090616;28;20262;-79
2022/10/29 00:24:41;;;;;;;10.50;3.80;;;;;;;12.57;100.00;97099.56;5090478;28;20221;-79
2022/10/29 00:27:08;;;;;;;8.97;4.00;;;;;;;12.67;100.00;97118.00;5088310;28;20203;-79
2022/10/29 00:29:35;;;;;;;9.03;3.33;;;;;;;12.67;100.00;97108.00;5085128;28;20246;-79
2022/10/29 00:32:02;;;;;;;11.47;4.60;;;;;;;12.68;100.00;97122.34;5088281;28;20200;-79
2022/10/29 00:34:29;;;;;;;10.17;3.37;;;;;;;12.67;100.00;97128.84;5086333;28;20225;-79
2022/10/29 00:36:56;;;;;;;6.97;3.10;;;;;;;12.58;100.00;97132.88;5083161;28;20213;-79
2022/10/29 00:39:23;;;;;;;10.83;3.23;;;;;;;12.59;100.00;97129.13;5089698;28;20304;-79
2022/10/29 00:41:52;;;;;;;12.50;3.07;;;;;;;12.58;100.00;97122.88;5086453;28;20255;-79
2022/10/29 00:44:29;;;;;;;12.00;3.77;;;;;;;12.61;100.00;97125.13;5085547;28;20205;-79
2022/10/29 00:47:02;;;;;;;10.13;3.67;;;;;;;12.64;100.00;97121.16;5073251;28;20229;-79
2022/10/29 00:49:31;;;;;;;10.07;3.60;;;;;;;12.64;100.00;97127.41;5074058;28;20204;-79
2022/10/29 00:52:00;;;;;;;7.80;4.07;;;;;;;12.62;100.00;97136.78;5086601;28;20233;-79
2022/10/29 00:54:30;;;;;;;8.57;3.60;;;;;;;12.62;100.00;97134.09;5087034;28;20204;-79
2022/10/29 00:57:03;;;;;;;12.13;4.53;;;;;;;12.60;100.00;97119.91;5081322;28;20205;-79
2022/10/29 00:59:30;;;;;;;13.77;4.47;;;;;;;12.59;100.00;97129.94;5094140;27;20229;-79
2022/10/29 01:01:57;;;;;;;10.30;3.20;;;;;;;12.58;100.00;97132.88;5083128;28;20189;-79
2022/10/29 01:04:25;;;;;;;13.33;3.87;;;;;;;12.55;100.00;97133.31;5082743;28;20214;-79
2022/10/29 01:06:52;;;;;;;10.63;3.33;;;;;;;12.55;100.00;97133.31;5084824;28;20217;-79
2022/10/29 01:09:19;;;;;;;10.87;4.10;;;;;;;12.51;100.00;97132.94;5083254;28;20213;-79
2022/10/29 01:12:00;;;;;;;10.57;3.97;;;;;;;12.54;100.00;97137.09;5081682;28;20201;-79
2022/10/29 01:14:38;;;;;;;9.73;4.37;;;;;;;12.56;100.00;97133.09;5072557;28;20213;-79
2022/10/29 01:17:14;;;;;;;11.17;3.77;;;;;;;12.55;100.00;97138.75;5098079;28;20316;-79
2022/10/29 01:20:11;;;;;;;10.63;3.30;;;;;;;12.54;100.00;97142.50;5087646;28;20312;-79
2022/10/29 01:22:44;;;;;;;13.70;4.03;;;;;;;12.55;100.00;97139.56;5080887;28;20259;-79
2022/10/29 01:25:36;;;;;;;11.87;4.10;;;;;;;12.57;100.00;97144.78;5081516;28;20236;-79
2022/10/29 01:28:28;;;;;;;9.63;3.90;;;;;;;12.57;100.00;97147.47;5084191;28;20197;-79
2022/10/29 01:31:18;;;;;;;11.73;3.70;;;;;;;12.54;100.00;97146.03;5084428;28;20201;-79
2022/10/29 01:33:54;;;;;;;19.60;4.30;;;;;;;12.53;100.00;97152.50;5075524;28;20198;-79
2022/10/29 01:36:29;;;;;;;10.47;3.80;;;;;;;12.52;100.00;97145.44;5083824;28;20206;-79
2022/10/29 01:39:05;;;;;;;10.17;3.60;;;;;;;12.53;100.00;97144.38;5082497;28;20201;-79
2022/10/29 01:41:41;;;;;;;12.40;4.30;;;;;;;12.47;100.00;97137.16;5077005;28;20205;-79
2022/10/29 01:44:13;;;;;;;13.80;3.50;;;;;;;12.50;100.00;97142.13;5081699;28;20275;-79
2022/10/29 01:46:46;;;;;;;10.97;3.70;;;;;;;12.48;100.00;97136.09;5094754;28;20224;-79
2022/10/29 01:49:19;;;;;;;11.83;3.50;;;;;;;12.46;100.00;97127.38;5079298;28;20204;-79
2022/10/29 01:51:49;;;;;;;9.43;3.80;;;;;;;12.48;100.00;97127.97;5089195;28;20209;-79
2022/10/29 01:54:16;;;;;;;10.13;4.10;;;;;;;12.42;100.00;97120.72;5084568;28;20208;-79
2022/10/29 01:56:43;;;;;;;9.83;3.77;;;;;;;12.44;100.00;97113.22;5079964;28;20215;-79
2022/10/29 01:59:13;;;;;;;11.27;3.93;;;;;;;12.53;100.00;97128.13;5079571;28;20196;-79
2022/10/29 02:01:58;;;;;;;10.20;3.60;;;;;;;12.53;100.00;97128.13;5083828;28;20200;-78
2022/10/29 02:04:48;;;;;;;9.37;3.73;;;;;;;12.56;100.00;97124.97;5082149;28;20256;-79
2022/10/29 02:07:29;;;;;;;14.10;3.43;;;;;;;12.58;100.00;97119.34;5083237;28;20341;-79
2022/10/29 02:10:03;;;;;;;12.90;3.80;;;;;;;12.59;100.00;97113.69;5080546;28;20217;-79
2022/10/29 02:12:35;;;;;;;14.67;3.73;;;;;;;12.60;100.00;97107.22;5077561;28;20246;-79
2022/10/29 02:15:07;;;;;;;10.37;3.77;;;;;;;12.67;100.00;97115.28;5085036;28;20208;-79
2022/10/29 02:17:36;;;;;;;12.37;3.60;;;;;;;12.68;100.00;97112.34;5081763;28;20205;-79
2022/10/29 02:20:05;;;;;;;9.17;3.77;;;;;;;12.72;100.00;97108.13;5082995;28;20225;-79
2022/10/29 02:22:32;;;;;;;7.80;3.53;;;;;;;12.66;100.00;97092.78;5086105;28;20212;-79
2022/10/29 02:25:00;;;;;;;13.30;3.60;;;;;;;12.76;100.00;97101.19;5077446;28;20246;-79
2022/10/29 02:27:27;;;;;;;9.70;3.37;;;;;;;12.76;100.00;97095.78;5078808;28;20246;-79
2022/10/29 02:29:54;;;;;;;11.23;3.90;;;;;;;12.76;100.00;97098.47;5088508;28;20201;-79
2022/10/29 02:32:22;;;;;;;8.93;3.60;;;;;;;12.73;100.00;97082.69;5077372;28;20211;-79
2022/10/29 02:34:50;;;;;;;12.97;4.27;;;;;;;12.69;100.00;97081.47;5081337;28;20239;-79
2022/10/29 02:37:17;;;;;;;8.67;3.47;;;;;;;12.63;100.00;97078.84;5086868;28;20192;-79
2022/10/29 02:39:44;;;;;;;10.77;4.13;;;;;;;12.62;100.00;97074.47;5095036;28;20201;-79
2022/10/29 02:42:11;;;;;;;9.60;3.00;;;;;;;12.65;100.00;97072.16;5080886;28;20264;-79
2022/10/29 02:44:38;;;;;;;9.60;3.90;;;;;;;12.66;100.00;97070.28;5075557;28;20205;-79
2022/10/29 02:47:06;;;;;;;9.57;3.90;;;;;;;12.68;100.00;97063.56;5079506;28;20218;-79
2022/10/29 02:49:33;;;;;;;14.03;3.33;;;;;;;12.70;100.00;97069.59;5086015;28;20215;-79
2022/10/29 02:52:01;;;;;;;12.43;3.27;;;;;;;12.72;100.00;97058.53;5087760;28;20295;-79
2022/10/29 02:54:28;;;;;;;12.40;3.50;;;;;;;12.77;100.00;97056.78;5082248;28;20216;-79
2022/10/29 02:56:55;;;;;;;6.43;3.47;;;;;;;12.69;100.00;97043.53;5085597;28;20201;-79
2022/10/29 02:59:22;;;;;;;12.23;3.43;;;;;;;12.65;100.00;97046.94;5079335;28;20193;-79
2022/10/29 03:01:49;;;;;;;8.73;3.30;;;;;;;12.64;100.00;97043.41;5075686;28;20212;-79
2022/10/29 03:04:16;;;;;;;8.97;3.07;;;;;;;12.60;100.00;97044.91;5082772;28;20208;-79
2022/10/29 03:06:43;;;;;;;8.70;3.27;;;;;;;12.59;100.00;97045.16;5078717;28;20290;-79
2022/10/29 03:09:12;;;;;;;10.43;3.50;;;;;;;12.56;100.00;97048.28;5084325;28;20204;-79
2022/10/29 03:11:39;;;;;;;11.13;3.93;;;;;;;12.52;100.00;97042.50;5078832;28;20246;-79
2022/10/29 03:14:09;;;;;;;8.13;3.37;;;;;;;12.48;100.00;97041.28;5082518;28;20206;-79
2022/10/29 03:16:36;;;;;;;10.07;3.20;;;;;;;12.44;100.00;97040.06;5097736;28;20197;-79
2022/10/29 03:19:03;;;;;;;14.07;4.03;;;;;;;12.38;100.00;97046.41;5088635;28;20313;-79
2022/10/29 03:21:30;;;;;;;8.67;4.17;;;;;;;12.38;100.00;97043.69;5084014;28;20282;-79
2022/10/29 03:23:57;;;;;;;8.07;3.73;;;;;;;12.35;100.00;97041.41;5080910;28;20212;-79
2022/10/29 03:26:26;;;;;;;15.10;4.13;;;;;;;12.27;100.00;97028.19;5078583;28;20426;-79
2022/10/29 03:28:53;;;;;;;6.43;3.20;;;;;;;12.31;100.00;97040.22;5078968;28;20196;-79
2022/10/29 03:31:20;;;;;;;8.90;3.17;;;;;;;12.28;100.00;97043.38;5077510;28;20288;-79
2022/10/29 03:33:46;;;;;;;10.53;3.87;;;;;;;12.26;100.00;97043.59;5081002;28;20231;-79
2022/10/29 03:36:14;;;;;;;8.83;3.27;;;;;;;12.19;100.00;97037.44;5082891;28;20201;-79
2022/10/29 03:38:41;;;;;;;11.40;3.50;;;;;;;12.20;100.00;97032.84;5069002;28;20205;-79
2022/10/29 03:41:09;;;;;;;9.50;3.47;;;;;;;12.20;100.00;97035.53;5083137;28;20281;-79
2022/10/29 03:43:39;;;;;;;6.83;3.50;;;;;;;12.18;100.00;97035.75;5086700;28;20198;-79
2022/10/29 03:46:09;;;;;;;9.90;3.27;;;;;;;12.16;100.00;97035.19;5078379;28;20221;-79
2022/10/29 03:48:36;;;;;;;10.23;4.00;;;;;;;12.15;100.00;97029.97;5086606;28;20216;-79
2022/10/29 03:51:08;;;;;;;8.93;3.17;;;;;;;12.15;100.00;97035.41;5087638;28;20303;-79
2022/10/29 03:53:37;;;;;;;14.70;3.47;;;;;;;12.18;100.00;97034.94;5087114;28;20196;-79
2022/10/29 03:56:05;;;;;;;7.67;3.50;;;;;;;12.18;100.00;97033.06;5084786;28;20192;-79
2022/10/29 03:58:32;;;;;;;12.63;3.63;;;;;;;12.13;100.00;97035.63;5089677;28;20201;-79
2022/10/29 04:01:03;;;;;;;7.10;3.70;;;;;;;12.08;100.00;97044.38;5083304;28;20244;-79
2022/10/29 04:03:32;;;;;;;16.77;4.33;;;;;;;12.08;100.00;97041.69;5083847;28;20198;-79
2022/10/29 04:06:01;;;;;;;10.97;3.83;;;;;;;12.10;100.00;97046.88;5082178;28;20221;-79
2022/10/29 04:08:28;;;;;;;12.73;3.70;;;;;;;12.07;100.00;97044.63;5078532;28;20265;-79
2022/10/29 04:10:55;;;;;;;13.23;3.60;;;;;;;12.01;100.00;97045.50;5081591;28;20204;-79
2022/10/29 04:13:22;;;;;;;14.40;3.50;;;;;;;12.00;100.00;97050.09;5084693;28;20198;-79
2022/10/29 04:15:53;;;;;;;9.50;3.63;;;;;;;11.96;100.00;97045.34;5079729;28;20212;-79
2022/10/29 04:18:21;;;;;;;13.23;3.17;;;;;;;11.95;100.00;97049.13;5079171;28;20205;-79
2022/10/29 04:20:48;;;;;;;9.97;3.27;;;;;;;11.93;100.00;97049.31;5085627;28;20208;-79
2022/10/29 04:23:16;;;;;;;8.87;3.60;;;;;;;11.88;100.00;97048.34;5081923;28;20280;-79
2022/10/29 04:25:42;;;;;;;14.40;4.17;;;;;;;11.86;100.00;97059.38;5083971;28;20201;-79
2022/10/29 04:28:10;;;;;;;13.67;3.53;;;;;;;11.81;100.00;97053.00;5083036;28;20198;-79
2022/10/29 04:30:36;;;;;;;15.00;3.40;;;;;;;11.83;100.00;97069.81;5082776;28;20208;-79
2022/10/29 04:33:04;;;;;;;11.23;4.23;;;;;;;11.75;100.00;97058.22;5088863;28;20219;-79
2022/10/29 04:35:32;;;;;;;8.77;3.97;;;;;;;11.78;100.00;97066.94;5084333;28;20224;-79
2022/10/29 04:38:00;;;;;;;11.50;3.97;;;;;;;11.75;100.00;97062.78;5087519;28;20291;-79
2022/10/29 04:40:27;;;;;;;9.73;3.80;;;;;;;11.74;100.00;97055.69;5086094;28;20223;-79
2022/10/29 04:42:54;;;;;;;6.97;3.40;;;;;;;11.69;100.00;97060.94;5083777;28;20328;-79
2022/10/29 04:45:21;;;;;;;9.17;3.27;;;;;;;11.65;100.00;97054.34;5087938;28;20188;-79
2022/10/29 04:47:48;;;;;;;7.57;3.30;;;;;;;11.64;100.00;97055.38;5080510;28;20222;-79
2022/10/29 04:50:15;;;;;;;15.73;3.80;;;;;;;11.62;100.00;97054.75;5078110;28;20259;-79
2022/10/29 04:52:44;;;;;;;11.67;3.83;;;;;;;11.61;100.00;97053.09;5090032;28;20569;-79
2022/10/29 04:55:11;;;;;;;8.13;3.20;;;;;;;11.64;100.00;97048.09;5085298;28;20201;-79
2022/10/29 04:57:39;;;;;;;10.47;3.83;;;;;;;11.62;100.00;97046.66;5084244;28;20197;-79
2022/10/29 05:00:07;;;;;;;8.07;3.00;;;;;;;11.58;100.00;97042.72;5090487;28;20220;-79
2022/10/29 05:02:35;;;;;;;11.40;3.10;;;;;;;11.59;100.00;97047.06;5085118;28;20212;-79
2022/10/29 05:05:02;;;;;;;9.37;3.47;;;;;;;11.60;100.00;97041.44;5078995;28;20196;-79
2022/10/29 05:07:29;;;;;;;10.40;3.37;;;;;;;11.58;100.00;97040.84;5082927;28;20230;-79
2022/10/29 05:09:58;;;;;;;11.47;4.10;;;;;;;11.60;100.00;97048.75;5085518;28;20311;-79
2022/10/29 05:12:25;;;;;;;6.97;2.70;;;;;;;11.56;100.00;97040.25;5082352;28;20202;-79
2022/10/29 05:14:52;;;;;;;13.77;3.23;;;;;;;11.59;100.00;97042.50;5078325;28;20208;-79
2022/10/29 05:17:19;;;;;;;8.63;2.83;;;;;;;11.62;100.00;97046.66;5079477;28;20209;-79
2022/10/29 05:19:46;;;;;;;7.43;3.00;;;;;;;11.63;100.00;97032.91;5088604;28;20217;-79
2022/10/29 05:22:13;;;;;;;9.33;2.30;;;;;;;11.61;100.00;97045.81;5075100;28;20262;-78
2022/10/29 05:24:40;;;;;;;8.10;2.53;;;;;;;11.62;100.00;97038.53;5084429;28;20215;-78
2022/10/29 05:27:08;;;;;;;7.70;2.47;;;;;;;11.58;100.00;97035.44;5087666;28;20217;-79
2022/10/29 05:29:35;;;;;;;9.67;3.20;;;;;;;11.51;100.00;97029.25;5087632;28;20209;-79
2022/10/29 05:32:03;;;;;;;7.07;2.90;;;;;;;11.52;100.00;97027.38;5081360;28;20296;-78
2022/10/29 05:34:30;;;;;;;6.37;3.33;;;;;;;11.50;100.00;97029.47;5081804;28;20228;-79
2022/10/29 05:36:57;;;;;;;9.77;3.07;;;;;;;11.48;100.00;97032.41;5083225;28;20216;-78
2022/10/29 05:39:24;;;;;;;9.97;3.10;;;;;;;11.37;100.00;97017.72;5083323;28;20206;-79
2022/10/29 05:41:51;;;;;;;5.47;2.63;;;;;;;11.37;100.00;97033.09;5079968;28;20216;-79
2022/10/29 05:44:20;;;;;;;9.60;3.00;;;;;;;11.44;100.00;97039.28;5087608;28;20197;-79
2022/10/29 05:46:48;;;;;;;10.00;2.87;;;;;;;11.44;100.00;97043.88;5077829;28;20230;-78
2022/10/29 05:49:15;;;;;;;11.93;2.77;;;;;;;11.44;100.00;97046.56;5088204;28;20234;-79
2022/10/29 05:51:42;;;;;;;12.03;2.90;;;;;;;11.43;100.00;97039.50;5077602;28;20210;-79
2022/10/29 05:54:09;;;;;;;13.67;4.27;;;;;;;11.37;100.00;97038.50;5087121;28;20205;-79
2022/10/29 05:56:36;;;;;;;6.77;3.17;;;;;;;11.33;100.00;97031.88;5087815;28;20448;-79
2022/10/29 05:59:03;;;;;;;11.80;2.83;;;;;;;11.34;100.00;97038.94;5078674;28;20205;-79
2022/10/29 06:01:32;;;;;;;13.33;3.83;;;;;;;11.33;100.00;97031.88;5085883;28;20207;-78
2022/10/29 06:04:00;;;;;;;9.67;3.63;;;;;;;11.27;100.00;97024.63;5089193;28;20196;-78
2022/10/29 06:06:27;;;;;;;9.23;3.80;;;;;;;11.29;100.00;97031.50;5088628;28;20205;-79
2022/10/29 06:08:54;;;;;;;9.13;3.00;;;;;;;11.35;100.00;97030.59;5080111;28;20216;-78
2022/10/29 06:11:21;;;;;;;13.27;3.40;;;;;;;11.30;100.00;97025.03;5084416;28;20231;-78
2022/10/29 06:13:48;;;;;;;6.40;2.87;;;;;;;11.40;100.00;97031.84;5089356;28;20208;-79
2022/10/29 06:16:15;;;;;;;10.47;2.87;;;;;;;11.42;100.00;97035.13;5087175;28;20209;-79
2022/10/29 06:18:43;;;;;;;19.10;3.60;;;;;;;11.41;100.00;97037.00;5082682;28;20228;-79
2022/10/29 06:21:10;;;;;;;9.43;3.17;;;;;;;11.40;100.00;97038.06;5078527;28;20209;-79
2022/10/29 06:23:37;;;;;;;7.07;3.83;;;;;;;11.40;100.00;97031.84;5078481;28;20205;-78
2022/10/29 06:26:04;;;;;;;8.00;3.30;;;;;;;11.51;100.00;97050.06;5087113;28;20220;-78
2022/10/29 06:28:31;;;;;;;14.93;4.07;;;;;;;11.48;100.00;97035.13;5088279;28;20212;-79
2022/10/29 06:30:58;;;;;;;7.57;3.37;;;;;;;11.51;100.00;97044.63;5082198;28;20211;-79
2022/10/29 06:33:25;;;;;;;13.80;4.10;;;;;;;11.49;100.00;97046.72;5078338;28;20208;-79
2022/10/29 06:35:58;;;;;;;10.67;4.23;;;;;;;11.47;100.00;97048.84;5081794;28;20247;-78
2022/10/29 06:38:26;;;;;;;16.07;4.07;;;;;;;11.44;100.00;97055.50;5079408;28;20197;-78
2022/10/29 06:40:53;;;;;;;13.67;3.63;;;;;;;11.50;100.00;97053.81;5086903;28;20209;-78
2022/10/29 06:43:21;;;;;;;8.57;4.00;;;;;;;11.50;100.00;97048.38;5086244;28;20193;-78
2022/10/29 06:45:48;;;;;;;15.67;4.67;;;;;;;11.47;100.00;97044.28;5084794;28;20236;-78
2022/10/29 06:48:16;;;;;;;7.77;4.10;;;;;;;11.47;100.00;97036.16;5077382;28;20226;-78
2022/10/29 06:50:43;;;;;;;7.07;4.23;;;;;;;11.49;100.00;97035.91;5075668;28;20202;-78
2022/10/29 06:53:13;;;;;;;12.20;4.63;;;;;;;11.52;100.00;97046.31;5081555;28;20224;-78
2022/10/29 06:55:41;;;;;;;11.03;4.23;;;;;;;11.57;100.00;97039.19;5084310;28;20225;-79
2022/10/29 06:58:12;;;;;;;18.00;4.37;;;;;;;11.61;100.00;97029.59;5080559;28;20212;-79
2022/10/29 07:00:40;;;;;;;8.53;3.80;;;;;;;11.66;100.00;97035.16;5080479;28;20209;-79
2022/10/29 07:03:08;;;;;;;12.30;3.60;;;;;;;11.69;100.00;97033.91;5086692;28;20201;-79
2022/10/29 07:05:36;;;;;;;12.43;4.47;;;;;;;11.69;100.00;97042.00;5081300;28;20216;-78
2022/10/29 07:08:03;;;;;;;9.67;4.13;;;;;;;11.81;100.00;97053.81;5094068;28;20341;-78
2022/10/29 07:10:33;;;;;;;7.40;3.17;;;;;;;11.92;100.00;97049.53;5090868;28;20200;-79
2022/10/29 07:13:01;;;;;;;10.90;3.53;;;;;;;11.94;100.00;97048.28;5087407;28;20235;-78
2022/10/29 07:15:28;;;;;;;6.20;3.47;;;;;;;11.95;100.00;97049.94;5091172;28;20204;-78
2022/10/29 07:17:58;;;;;;;11.23;3.73;;;;;;;12.04;100.00;97048.63;5087323;28;20209;-78
2022/10/29 07:20:26;;;;;;;8.37;3.43;;;;;;;12.02;100.00;97039.88;5090173;28;20228;-79
2022/10/29 07:22:53;;;;;;;7.73;3.53;;;;;;;12.01;100.00;97042.81;5086527;28;20205;-78
2022/10/29 07:25:20;;;;;;;16.40;6.57;;;;;;;12.05;100.00;97036.75;5092644;28;20215;-79
2022/10/29 07:27:48;;;;;;;5.47;3.20;;;;;;;12.15;100.00;97041.66;5090529;28;20232;-79
2022/10/29 07:30:16;;;;;;;11.00;3.83;;;;;;;12.20;100.00;97046.38;5088956;28;20296;-78
2022/10/29 07:32:43;;;;;;;9.93;4.43;;;;;;;12.21;100.00;97034.50;5091376;28;20211;-79
2022/10/29 07:35:10;;;;;;;13.97;4.33;;;;;;;12.22;100.00;97036.16;5088766;28;20319;-78
2022/10/29 07:37:37;;;;;;;14.00;5.00;;;;;;;12.25;100.00;97031.09;5084225;28;20194;-79
2022/10/29 07:40:07;;;;;;;12.17;4.40;;;;;;;12.25;100.00;97036.53;5085444;28;20286;-79
2022/10/29 07:42:34;;;;;;;12.03;4.50;;;;;;;12.27;100.00;97039.00;5088872;28;20205;-79
2022/10/29 07:45:02;;;;;;;17.03;4.93;;;;;;;12.38;100.00;97030.16;5089654;28;20209;-79
2022/10/29 07:47:29;;;;;;;14.53;3.87;;;;;;;12.38;100.00;97030.16;5089256;28;20217;-79
2022/10/29 07:49:56;;;;;;;9.83;3.80;;;;;;;12.44;100.00;97040.06;5091021;28;20193;-79
2022/10/29 07:52:23;;;;;;;13.10;4.93;;;;;;;12.47;100.00;97034.22;5094095;28;20204;-78
2022/10/29 07:54:50;;;;;;;7.13;4.00;;;;;;;12.50;100.00;97036.50;5086718;28;20284;-78
2022/10/29 07:57:17;;;;;;;10.77;5.33;;;;;;;12.52;100.00;97037.06;5083746;28;20205;-78
2022/10/29 07:59:45;;;;;;;10.63;4.87;;;;;;;12.53;100.00;97030.59;5086464;28;20292;-78
2022/10/29 08:02:13;;;;;;;13.57;4.93;;;;;;;12.55;100.00;97036.63;5078885;28;20201;-78
2022/10/29 08:04:40;;;;;;;10.37;4.97;;;;;;;12.58;100.00;97035.34;5093766;28;20235;-78
2022/10/29 08:07:07;;;;;;;15.50;6.10;;;;;;;12.57;100.00;97036.41;5089155;28;20211;-78
2022/10/29 08:09:34;;;;;;;8.87;5.80;;;;;;;12.55;100.00;97030.38;5092636;28;20192;-78
2022/10/29 08:12:03;;;;;;;12.30;4.90;;;;;;;12.57;100.00;97028.28;5092952;28;20201;-78
2022/10/29 08:14:30;;;;;;;15.37;5.10;;;;;;;12.59;100.00;97026.97;5093381;28;20213;-78
2022/10/29 08:16:57;;;;;;;9.57;4.90;;;;;;;12.65;100.00;97031.50;5095232;28;20204;-78
2022/10/29 08:19:28;;;;;;;10.47;4.50;;;;;;;12.66;100.00;97022.34;5096748;28;20225;-78
2022/10/29 08:21:55;;;;;;;10.70;4.40;;;;;;;12.71;100.00;97019.75;5091531;28;20201;-78
2022/10/29 08:24:23;;;;;;;12.57;5.03;;;;;;;12.77;100.00;97036.97;5093781;28;20203;-78
2022/10/29 08:26:50;;;;;;;10.10;4.47;;;;;;;12.84;100.00;97025.00;5100860;28;20217;-78
2022/10/29 08:29:17;;;;;;;13.93;5.20;;;;;;;12.90;100.00;97028.69;5091062;28;20220;-78
2022/10/29 08:31:45;;;;;;;12.73;4.73;;;;;;;12.98;100.00;97035.69;5092501;28;20204;-78
2022/10/29 08:34:12;;;;;;;18.23;5.37;;;;;;;13.03;100.00;97030.41;5090748;28;20229;-78
2022/10/29 08:36:41;;;;;;;10.80;4.37;;;;;;;13.11;100.00;97025.47;5087728;28;20231;-78
2022/10/29 08:39:08;;;;;;;13.37;4.23;;;;;;;13.19;100.00;97024.38;5083645;28;20364;-78
2022/10/29 08:41:44;;;;;;;22.87;4.77;;;;;;;13.37;100.00;97023.47;5084111;28;20263;-78
2022/10/29 08:44:46;;;;;;;13.47;4.50;;;;;;;13.51;100.00;97028.50;5091660;28;20200;-78
2022/10/29 08:47:19;;;;;;;12.13;4.83;;;;;;;13.63;100.00;97025.78;5066919;28;20296;-78
2022/10/29 08:49:51;;;;;;;12.47;3.90;;;;;;;13.76;100.00;97020.16;5085154;28;20293;-78
2022/10/29 08:52:26;;;;;;;13.27;4.70;;;;;;;13.90;100.00;97018.03;5090325;28;20243;-78
2022/10/29 08:55:04;;;;;;;12.03;4.43;;;;;;;14.07;100.00;97020.88;5092854;28;20204;-78
2022/10/29 08:57:34;;;;;;;14.03;4.00;;;;;;;14.23;100.00;97017.47;5090177;28;20219;-79
2022/10/29 09:00:06;;;;;;;15.50;4.03;;;;;;;14.44;100.00;97019.63;5089922;28;20296;-79
2022/10/29 09:02:33;;;;;;;20.03;5.13;;;;;;;14.63;100.00;97025.75;5082583;28;20215;-80
2022/10/29 09:05:01;;;;;;;12.50;4.27;;;;;;;14.79;100.00;97010.56;5089249;28;20263;-80
2022/10/29 09:07:55;;;;;;;16.13;4.30;;;;;;;14.96;100.00;97020.44;5096535;28;20235;-80
2022/10/29 09:10:32;;;;;;;11.67;4.77;;;;;;;15.23;100.00;97028.00;5094358;28;20193;-80
2022/10/29 09:13:22;;;;;;;13.47;3.87;;;;;;;15.40;100.00;97015.25;5097352;28;20207;-79
2022/10/29 09:16:05;;;;;;;9.53;3.37;;;;;;;15.64;100.00;97019.56;5095872;28;20208;-80
2022/10/29 09:18:46;;;;;;;8.50;3.33;;;;;;;15.79;100.00;97014.38;5091372;28;20252;-79
2022/10/29 09:21:26;;;;;;;10.07;2.70;;;;;;;15.94;100.00;97015.69;5091938;28;20224;-79
2022/10/29 09:24:07;;;;;;;13.47;3.97;;;;;;;16.05;100.00;97014.78;5091409;28;20232;-79
2022/10/29 09:26:47;;;;;;;11.27;3.37;;;;;;;16.08;100.00;97006.91;5090968;28;20301;-80
2022/10/29 09:29:43;;;;;;;11.47;3.67;;;;;;;16.17;100.00;96996.44;5081603;28;20319;-79
2022/10/29 09:32:15;;;;;;;10.43;3.17;;;;;;;16.33;100.00;96994.78;5079725;28;20212;-80
2022/10/29 09:34:46;;;;;;;11.00;3.60;;;;;;;16.41;100.00;96997.06;5085894;28;20231;-80
2022/10/29 09:37:16;;;;;;;11.90;4.20;;;;;;;16.50;100.00;96996.34;5099612;28;20245;-79
2022/10/29 09:39:47;;;;;;;13.53;3.80;;;;;;;16.63;100.00;96995.22;5091372;28;20308;-80
2022/10/29 09:42:21;;;;;;;11.03;3.33;;;;;;;16.75;100.00;96992.38;5088339;28;20228;-80
2022/10/29 09:44:54;;;;;;;10.93;2.70;;;;;;;16.87;100.00;96990.31;5082518;28;20315;-80
2022/10/29 09:47:33;;;;;;;14.27;3.77;;;;;;;16.97;100.00;96985.00;5094831;28;20215;-80
2022/10/29 09:50:12;;;;;;;9.37;3.23;;;;;;;17.06;100.00;96988.91;5090152;28;20204;-80
2022/10/29 09:52:41;;;;;;;10.47;3.40;;;;;;;17.19;100.00;96993.97;5087629;28;20216;-80
2022/10/29 09:55:20;;;;;;;14.10;3.20;;;;;;;17.26;100.00;96994.63;5082772;28;20196;-80
2022/10/29 09:57:48;;;;;;;9.87;2.90;;;;;;;17.40;100.00;96984.09;5080809;28;20207;-80
2022/10/29 10:00:19;;;;;;;12.93;4.23;;;;;;;17.49;100.00;96992.66;5083807;28;20194;-80
2022/10/29 10:02:54;;;;;;;8.10;3.77;;;;;;;17.60;100.00;96994.41;5087366;28;20193;-80
2022/10/29 10:05:25;;;;;;;13.33;4.20;;;;;;;17.72;100.00;96993.16;5077817;28;20597;-80
2022/10/29 10:08:11;;;;;;;14.47;4.20;;;;;;;17.90;100.00;96988.38;5090562;28;20320;-80
2022/10/29 10:10:55;;;;;;;11.37;3.67;;;;;;;18.06;100.00;96982.78;5088703;28;20258;-80
2022/10/29 10:13:25;;;;;;;11.17;4.10;;;;;;;18.13;100.00;96986.09;5078896;28;20217;-80
2022/10/29 10:15:54;;;;;;;13.03;4.40;;;;;;;18.22;100.00;96985.59;5089000;28;20208;-80
2022/10/29 10:18:23;;;;;;;8.93;4.07;;;;;;;18.31;100.00;96984.03;5085779;28;20331;-80
2022/10/29 10:21:02;;;;;;;10.70;4.43;;;;;;;18.45;100.00;96990.69;5088973;28;20205;-80
2022/10/29 10:23:39;;;;;;;12.75;4.45;;;;;;;18.51;100.00;96985.00;5089374;28;20200;-80
2022/10/29 10:26:27;;;;;;;16.03;4.23;;;;;;;18.64;100.00;96982.88;5073850;28;20220;-80
2022/10/29 10:29:06;;;;;;;14.53;4.07;;;;;;;18.74;100.00;96972.81;5081576;28;20256;-81
2022/10/29 10:31:33;;;;;;;11.85;3.42;;;;;;;18.94;100.00;96979.47;5081897;28;20229;-80
2022/10/29 10:34:09;;;;;;;8.07;3.63;;;;;;;19.02;100.00;96984.44;5090062;28;20228;-81
2022/10/29 10:36:40;;;;;;;9.82;4.00;;;;;;;19.09;100.00;96982.25;5084836;28;20209;-81
2022/10/29 10:39:24;;;;;;;8.77;4.70;;;;;;;19.39;100.00;96982.34;5071203;28;20205;-81
2022/10/29 10:41:53;;;;;;;13.57;4.40;;;;;;;19.49;100.00;96974.16;5074116;28;20296;-80
2022/10/29 10:44:23;;;;;;;9.38;3.83;;;;;;;19.55;100.00;96966.78;5088509;28;20208;-81
2022/10/29 10:46:53;;;;;;;10.13;4.00;;;;;;;19.68;100.00;96976.38;5088585;28;20213;-80
2022/10/29 10:49:31;;;;;;;9.45;3.72;;;;;;;19.80;100.00;96969.56;5085941;28;20224;-81
2022/10/29 10:52:01;;;;;;;9.85;4.35;;;;;;;19.95;99.16;96964.06;5084200;28;20295;-80
2022/10/29 10:54:33;;;;;;;9.27;3.65;;;;;;;20.03;98.91;96962.69;5093030;28;20205;-76
2022/10/29 10:57:03;;;;;;;12.90;3.63;;;;;;;20.18;97.19;96961.84;5096439;28;20208;-76
2022/10/29 10:59:56;;;;;;;9.43;4.00;;;;;;;20.24;96.52;96958.81;5083828;28;20197;-76
2022/10/29 11:02:29;;;;;;;9.73;3.83;;;;;;;20.38;95.20;96954.44;5070842;28;20276;-76
2022/10/29 11:05:00;;;;;;;10.85;4.05;;;;;;;20.54;93.86;96943.41;5083992;28;20205;-76
2022/10/29 11:07:33;;;;;;;12.77;3.85;;;;;;;20.69;92.05;96943.34;5080513;28;20209;-76
2022/10/29 11:10:05;;;;;;;8.95;3.60;;;;;;;20.75;89.91;96939.50;5082417;28;20248;-76
2022/10/29 11:12:40;;;;;;;10.18;3.55;;;;;;;20.90;88.60;96944.94;5080980;28;20262;-76
2022/10/29 11:15:15;;;;;;;8.43;3.60;;;;;;;21.02;88.43;96939.09;5071568;28;20204;-76
2022/10/29 11:17:49;;;;;;;10.52;3.78;;;;;;;21.09;87.28;96929.47;5066804;28;20216;-76
2022/10/29 11:20:22;;;;;;;9.85;3.67;;;;;;;21.14;88.48;96923.09;5083038;28;20220;-76
2022/10/29 11:22:59;;;;;;;8.82;3.53;;;;;;;21.00;89.57;96928.41;5077198;28;20205;-76
2022/10/29 11:25:34;;;;;;;13.65;3.85;;;;;;;21.15;89.71;96925.56;5076593;28;20211;-76
2022/10/29 11:28:21;;;;;;;10.13;3.42;;;;;;;21.34;88.36;96922.19;5080828;28;20211;-76
2022/10/29 11:30:52;;;;;;;9.88;3.70;;;;;;;21.35;88.74;96915.59;5077006;28;20220;-76
2022/10/29 11:33:25;;;;;;;17.02;3.47;;;;;;;21.33;87.34;96915.06;5072802;28;20212;-76
2022/10/29 11:35:58;;;;;;;7.95;3.67;;;;;;;21.40;87.43;96910.06;5081067;28;20225;-76